sensor_id;sensor_type;location;lat;lon;timestamp;temperature;humidity
21928;DHT22;11128;51.096;17.190;2023-05-18T00:04:21;8.50;1.00
21928;DHT22;11128;51.096;17.190;2023-05-18T00:09:24;8.50;99.90
21928;DHT22;11128;51.096;17.190;2023-05-18T00:14:26;8.50;99.90
21928;DHT22;11128;51.096;17.190;2023-05-18T00:19:28;8.70;1.00
21928;DHT22;11128;51.096;17.190;2023-05-18T00:24:30;8.30;1.00
21928;DHT22;11128;51.096;17.190;2023-05-18T00:29:31;8.20;1.00
21928;DHT22;11128;51.096;17.190;2023-05-18T00:34:32;8.10;1.00
21928;DHT22;11128;51.096;17.190;2023-05-18T00:39:34;8.00;1.00
21928;DHT22;11128;51.096;17.190;2023-05-18T00:44:35;8.00;99.90
21928;DHT22;11128;51.096;17.190;2023-05-18T00:49:36;8.10;1.00
21928;DHT22;11128;51.096;17.190;2023-05-18T00:54:38;8.00;1.00
21928;DHT22;11128;51.096;17.190;2023-05-18T00:59:39;8.00;1.00
21928;DHT22;11128;51.096;17.190;2023-05-18T01:04:41;8.00;1.00
21928;DHT22;11128;51.096;17.190;2023-05-18T01:09:43;8.10;1.00
21928;DHT22;11128;51.096;17.190;2023-05-18T01:14:53;8.10;1.00
21928;DHT22;11128;51.096;17.190;2023-05-18T01:30:33;8.00;1.00
21928;DHT22;11128;51.096;17.190;2023-05-18T01:35:36;8.10;1.00
21928;DHT22;11128;51.096;17.190;2023-05-18T01:46:24;8.10;99.90
21928;DHT22;11128;51.096;17.190;2023-05-18T01:51:32;8.10;99.90
21928;DHT22;11128;51.096;17.190;2023-05-18T01:56:34;8.10;99.90
21928;DHT22;11128;51.096;17.190;2023-05-18T02:01:36;8.10;99.90
21928;DHT22;11128;51.096;17.190;2023-05-18T02:06:37;8.00;1.00
21928;DHT22;11128;51.096;17.190;2023-05-18T02:11:39;8.00;1.00
21928;DHT22;11128;51.096;17.190;2023-05-18T02:16:41;8.00;1.00
21928;DHT22;11128;51.096;17.190;2023-05-18T02:21:47;7.90;1.00
21928;DHT22;11128;51.096;17.190;2023-05-18T02:26:49;7.90;1.00
21928;DHT22;11128;51.096;17.190;2023-05-18T02:31:50;7.90;1.00
21928;DHT22;11128;51.096;17.190;2023-05-18T02:36:51;7.80;1.00
21928;DHT22;11128;51.096;17.190;2023-05-18T02:41:53;7.80;1.00
21928;DHT22;11128;51.096;17.190;2023-05-18T02:46:54;7.80;1.00
21928;DHT22;11128;51.096;17.190;2023-05-18T02:51:56;7.80;1.00
21928;DHT22;11128;51.096;17.190;2023-05-18T02:56:57;7.80;1.00
21928;DHT22;11128;51.096;17.190;2023-05-18T03:01:58;7.80;1.00
21928;DHT22;11128;51.096;17.190;2023-05-18T03:07:00;7.80;1.00
21928;DHT22;11128;51.096;17.190;2023-05-18T03:12:03;8.00;1.00
21928;DHT22;11128;51.096;17.190;2023-05-18T03:17:04;7.70;1.00
21928;DHT22;11128;51.096;17.190;2023-05-18T03:22:06;7.70;1.00
21928;DHT22;11128;51.096;17.190;2023-05-18T03:27:07;7.70;1.00
21928;DHT22;11128;51.096;17.190;2023-05-18T03:32:08;7.60;1.00
21928;DHT22;11128;51.096;17.190;2023-05-18T03:37:10;8.90;1.00
21928;DHT22;11128;51.096;17.190;2023-05-18T03:42:11;7.80;1.00
21928;DHT22;11128;51.096;17.190;2023-05-18T03:47:12;7.80;1.00
21928;DHT22;11128;51.096;17.190;2023-05-18T03:52:14;7.80;1.00
21928;DHT22;11128;51.096;17.190;2023-05-18T03:57:22;7.80;99.90
21928;DHT22;11128;51.096;17.190;2023-05-18T04:02:23;7.80;1.00
21928;DHT22;11128;51.096;17.190;2023-05-18T04:07:25;7.90;1.00
21928;DHT22;11128;51.096;17.190;2023-05-18T04:12:26;7.80;99.90
21928;DHT22;11128;51.096;17.190;2023-05-18T04:17:27;7.90;99.90
21928;DHT22;11128;51.096;17.190;2023-05-18T04:22:29;7.90;16.20
21928;DHT22;11128;51.096;17.190;2023-05-18T04:27:31;7.90;92.30
21928;DHT22;11128;51.096;17.190;2023-05-18T04:32:33;8.00;1.00
21928;DHT22;11128;51.096;17.190;2023-05-18T04:37:36;8.00;1.00
21928;DHT22;11128;51.096;17.190;2023-05-18T04:42:40;7.90;1.00
21928;DHT22;11128;51.096;17.190;2023-05-18T04:47:48;8.00;1.00
21928;DHT22;11128;51.096;17.190;2023-05-18T04:52:53;8.10;1.00
21928;DHT22;11128;51.096;17.190;2023-05-18T04:57:58;8.10;1.00
21928;DHT22;11128;51.096;17.190;2023-05-18T05:03:00;8.10;1.00
21928;DHT22;11128;51.096;17.190;2023-05-18T05:08:01;8.30;99.90
21928;DHT22;11128;51.096;17.190;2023-05-18T05:13:04;8.40;1.00
21928;DHT22;11128;51.096;17.190;2023-05-18T05:18:06;8.50;99.90
21928;DHT22;11128;51.096;17.190;2023-05-18T05:23:07;8.60;99.90
21928;DHT22;11128;51.096;17.190;2023-05-18T05:28:08;8.70;97.80
21928;DHT22;11128;51.096;17.190;2023-05-18T05:33:10;8.90;1.00
21928;DHT22;11128;51.096;17.190;2023-05-18T05:38:11;9.00;1.00
21928;DHT22;11128;51.096;17.190;2023-05-18T05:43:12;9.10;99.90
21928;DHT22;11128;51.096;17.190;2023-05-18T05:48:14;9.40;99.90
21928;DHT22;11128;51.096;17.190;2023-05-18T05:53:15;9.50;89.10
21928;DHT22;11128;51.096;17.190;2023-05-18T05:58:19;9.60;94.00
21928;DHT22;11128;51.096;17.190;2023-05-18T06:03:21;9.80;99.90
21928;DHT22;11128;51.096;17.190;2023-05-18T06:08:22;9.80;1.00
21928;DHT22;11128;51.096;17.190;2023-05-18T06:13:26;10.00;1.00
21928;DHT22;11128;51.096;17.190;2023-05-18T06:18:27;10.20;1.00
21928;DHT22;11128;51.096;17.190;2023-05-18T06:23:28;10.40;1.00
21928;DHT22;11128;51.096;17.190;2023-05-18T06:28:30;10.70;1.00
21928;DHT22;11128;51.096;17.190;2023-05-18T06:33:31;11.00;99.90
21928;DHT22;11128;51.096;17.190;2023-05-18T06:38:33;11.40;99.90
21928;DHT22;11128;51.096;17.190;2023-05-18T06:43:34;11.50;99.90
21928;DHT22;11128;51.096;17.190;2023-05-18T06:48:36;11.50;99.90
21928;DHT22;11128;51.096;17.190;2023-05-18T06:53:38;11.30;99.90
21928;DHT22;11128;51.096;17.190;2023-05-18T06:58:40;11.40;99.90
21928;DHT22;11128;51.096;17.190;2023-05-18T07:03:42;11.50;99.90
21928;DHT22;11128;51.096;17.190;2023-05-18T07:08:43;11.60;99.90
21928;DHT22;11128;51.096;17.190;2023-05-18T07:13:45;11.50;99.90
21928;DHT22;11128;51.096;17.190;2023-05-18T07:18:46;11.70;99.90
21928;DHT22;11128;51.096;17.190;2023-05-18T07:23:47;11.80;99.90
21928;DHT22;11128;51.096;17.190;2023-05-18T07:28:49;11.90;99.90
21928;DHT22;11128;51.096;17.190;2023-05-18T07:33:51;12.10;99.90
21928;DHT22;11128;51.096;17.190;2023-05-18T07:38:52;12.20;99.90
21928;DHT22;11128;51.096;17.190;2023-05-18T07:43:54;12.50;99.90
21928;DHT22;11128;51.096;17.190;2023-05-18T07:48:56;12.60;99.90
21928;DHT22;11128;51.096;17.190;2023-05-18T07:53:57;12.80;71.60
21928;DHT22;11128;51.096;17.190;2023-05-18T07:58:59;13.10;45.60
21928;DHT22;11128;51.096;17.190;2023-05-18T08:04:00;13.40;88.30
21928;DHT22;11128;51.096;17.190;2023-05-18T08:09:02;13.80;55.70
21928;DHT22;11128;51.096;17.190;2023-05-18T08:14:04;14.10;17.80
21928;DHT22;11128;51.096;17.190;2023-05-18T08:19:06;14.20;1.00
21928;DHT22;11128;51.096;17.190;2023-05-18T08:24:08;14.30;1.00
21928;DHT22;11128;51.096;17.190;2023-05-18T08:29:09;14.70;1.00
21928;DHT22;11128;51.096;17.190;2023-05-18T08:34:11;14.90;1.00
21928;DHT22;11128;51.096;17.190;2023-05-18T08:39:12;15.50;1.00
21928;DHT22;11128;51.096;17.190;2023-05-18T08:44:21;17.70;1.00
21928;DHT22;11128;51.096;17.190;2023-05-18T08:49:26;16.30;1.00
21928;DHT22;11128;51.096;17.190;2023-05-18T08:54:29;16.20;1.00
21928;DHT22;11128;51.096;17.190;2023-05-18T08:59:32;16.30;1.00
21928;DHT22;11128;51.096;17.190;2023-05-18T09:04:36;16.20;1.00
21928;DHT22;11128;51.096;17.190;2023-05-18T09:09:39;16.60;1.00
21928;DHT22;11128;51.096;17.190;2023-05-18T09:14:41;16.60;1.00
21928;DHT22;11128;51.096;17.190;2023-05-18T09:19:43;16.70;1.00
21928;DHT22;11128;51.096;17.190;2023-05-18T09:24:45;16.80;1.00
21928;DHT22;11128;51.096;17.190;2023-05-18T09:29:54;17.00;1.00
21928;DHT22;11128;51.096;17.190;2023-05-18T09:35:06;17.00;1.00
21928;DHT22;11128;51.096;17.190;2023-05-18T09:40:08;16.80;1.00
21928;DHT22;11128;51.096;17.190;2023-05-18T09:45:17;17.50;1.00
21928;DHT22;11128;51.096;17.190;2023-05-18T09:50:22;17.90;1.00
21928;DHT22;11128;51.096;17.190;2023-05-18T09:55:24;18.60;1.00
21928;DHT22;11128;51.096;17.190;2023-05-18T10:00:25;19.30;1.00
21928;DHT22;11128;51.096;17.190;2023-05-18T10:05:27;20.20;1.00
21928;DHT22;11128;51.096;17.190;2023-05-18T10:10:37;20.70;1.00
21928;DHT22;11128;51.096;17.190;2023-05-18T10:15:45;21.20;1.00
21928;DHT22;11128;51.096;17.190;2023-05-18T10:20:48;21.50;1.00
21928;DHT22;11128;51.096;17.190;2023-05-18T10:25:51;21.40;1.00
21928;DHT22;11128;51.096;17.190;2023-05-18T10:30:56;21.40;1.00
21928;DHT22;11128;51.096;17.190;2023-05-18T10:35:58;21.60;1.00
21928;DHT22;11128;51.096;17.190;2023-05-18T10:41:04;21.90;1.00
21928;DHT22;11128;51.096;17.190;2023-05-18T10:46:06;21.70;1.00
21928;DHT22;11128;51.096;17.190;2023-05-18T10:51:08;21.80;1.00
21928;DHT22;11128;51.096;17.190;2023-05-18T10:56:09;22.10;1.00
21928;DHT22;11128;51.096;17.190;2023-05-18T11:01:11;22.60;1.00
21928;DHT22;11128;51.096;17.190;2023-05-18T11:06:14;22.50;1.00
21928;DHT22;11128;51.096;17.190;2023-05-18T11:11:23;23.10;1.00
21928;DHT22;11128;51.096;17.190;2023-05-18T11:16:33;23.50;1.00
21928;DHT22;11128;51.096;17.190;2023-05-18T11:26:41;24.20;1.00
21928;DHT22;11128;51.096;17.190;2023-05-18T11:31:47;24.30;1.00
21928;DHT22;11128;51.096;17.190;2023-05-18T11:36:54;24.80;1.00
21928;DHT22;11128;51.096;17.190;2023-05-18T11:42:22;24.50;1.00
21928;DHT22;11128;51.096;17.190;2023-05-18T11:47:29;24.70;1.00
21928;DHT22;11128;51.096;17.190;2023-05-18T11:52:44;24.50;1.00
21928;DHT22;11128;51.096;17.190;2023-05-18T11:57:50;25.00;1.00
21928;DHT22;11128;51.096;17.190;2023-05-18T12:02:55;25.10;1.00
21928;DHT22;11128;51.096;17.190;2023-05-18T12:07:57;25.30;1.00
21928;DHT22;11128;51.096;17.190;2023-05-18T12:12:59;25.40;1.00
21928;DHT22;11128;51.096;17.190;2023-05-18T12:18:01;25.60;1.00
21928;DHT22;11128;51.096;17.190;2023-05-18T12:23:03;25.20;1.00
21928;DHT22;11128;51.096;17.190;2023-05-18T12:28:23;24.60;1.00
21928;DHT22;11128;51.096;17.190;2023-05-18T12:33:25;24.40;1.00
21928;DHT22;11128;51.096;17.190;2023-05-18T12:38:28;24.40;1.00
21928;DHT22;11128;51.096;17.190;2023-05-18T12:43:35;25.00;1.00
21928;DHT22;11128;51.096;17.190;2023-05-18T12:48:44;25.60;1.00
21928;DHT22;11128;51.096;17.190;2023-05-18T12:53:48;25.40;1.00
21928;DHT22;11128;51.096;17.190;2023-05-18T12:58:58;25.70;1.00
21928;DHT22;11128;51.096;17.190;2023-05-18T13:03:59;25.90;1.00
21928;DHT22;11128;51.096;17.190;2023-05-18T13:09:01;25.90;1.00
21928;DHT22;11128;51.096;17.190;2023-05-18T13:14:04;25.70;1.00
21928;DHT22;11128;51.096;17.190;2023-05-18T13:19:07;25.20;1.00
21928;DHT22;11128;51.096;17.190;2023-05-18T13:24:09;24.50;1.00
21928;DHT22;11128;51.096;17.190;2023-05-18T13:29:10;24.50;1.00
21928;DHT22;11128;51.096;17.190;2023-05-18T13:34:14;24.90;1.00
21928;DHT22;11128;51.096;17.190;2023-05-18T13:39:16;24.00;1.00
21928;DHT22;11128;51.096;17.190;2023-05-18T13:44:18;23.10;1.00
21928;DHT22;11128;51.096;17.190;2023-05-18T13:49:19;24.00;1.00
21928;DHT22;11128;51.096;17.190;2023-05-18T13:54:22;24.20;1.00
21928;DHT22;11128;51.096;17.190;2023-05-18T13:59:23;24.30;1.00
21928;DHT22;11128;51.096;17.190;2023-05-18T14:04:25;24.30;1.00
21928;DHT22;11128;51.096;17.190;2023-05-18T14:09:26;24.40;1.00
21928;DHT22;11128;51.096;17.190;2023-05-18T14:14:31;24.20;1.00
21928;DHT22;11128;51.096;17.190;2023-05-18T14:19:32;23.50;1.00
21928;DHT22;11128;51.096;17.190;2023-05-18T14:24:34;23.30;1.00
21928;DHT22;11128;51.096;17.190;2023-05-18T14:29:35;23.30;1.00
21928;DHT22;11128;51.096;17.190;2023-05-18T14:34:37;23.20;1.00
21928;DHT22;11128;51.096;17.190;2023-05-18T14:39:38;23.10;1.00
21928;DHT22;11128;51.096;17.190;2023-05-18T14:44:39;22.80;1.00
21928;DHT22;11128;51.096;17.190;2023-05-18T14:49:41;22.60;1.00
21928;DHT22;11128;51.096;17.190;2023-05-18T14:54:42;22.50;1.00
21928;DHT22;11128;51.096;17.190;2023-05-18T14:59:44;22.30;1.00
21928;DHT22;11128;51.096;17.190;2023-05-18T15:04:45;21.90;1.00
21928;DHT22;11128;51.096;17.190;2023-05-18T15:09:46;22.00;1.00
21928;DHT22;11128;51.096;17.190;2023-05-18T15:14:48;21.40;1.00
21928;DHT22;11128;51.096;17.190;2023-05-18T15:19:49;20.90;1.00
21928;DHT22;11128;51.096;17.190;2023-05-18T15:24:51;20.90;1.00
21928;DHT22;11128;51.096;17.190;2023-05-18T15:29:52;20.90;1.00
21928;DHT22;11128;51.096;17.190;2023-05-18T15:34:54;20.70;1.00
21928;DHT22;11128;51.096;17.190;2023-05-18T15:39:55;20.00;1.00
21928;DHT22;11128;51.096;17.190;2023-05-18T15:44:56;19.90;1.00
21928;DHT22;11128;51.096;17.190;2023-05-18T15:49:58;19.60;1.00
21928;DHT22;11128;51.096;17.190;2023-05-18T15:55:00;19.40;1.00
21928;DHT22;11128;51.096;17.190;2023-05-18T16:00:02;19.40;1.00
21928;DHT22;11128;51.096;17.190;2023-05-18T16:05:04;19.40;1.00
21928;DHT22;11128;51.096;17.190;2023-05-18T16:10:06;19.50;1.00
21928;DHT22;11128;51.096;17.190;2023-05-18T16:15:08;19.20;1.00
21928;DHT22;11128;51.096;17.190;2023-05-18T16:20:10;19.10;1.00
21928;DHT22;11128;51.096;17.190;2023-05-18T16:25:11;18.90;1.00
21928;DHT22;11128;51.096;17.190;2023-05-18T16:30:13;18.70;1.00
21928;DHT22;11128;51.096;17.190;2023-05-18T16:35:14;18.60;1.00
21928;DHT22;11128;51.096;17.190;2023-05-18T16:40:15;18.40;1.00
21928;DHT22;11128;51.096;17.190;2023-05-18T16:45:17;18.20;1.00
21928;DHT22;11128;51.096;17.190;2023-05-18T16:50:18;17.90;1.00
21928;DHT22;11128;51.096;17.190;2023-05-18T16:55:19;17.90;1.00
21928;DHT22;11128;51.096;17.190;2023-05-18T17:00:21;17.70;1.00
21928;DHT22;11128;51.096;17.190;2023-05-18T17:05:23;17.60;1.00
21928;DHT22;11128;51.096;17.190;2023-05-18T17:10:24;17.50;1.00
21928;DHT22;11128;51.096;17.190;2023-05-18T17:15:25;17.30;1.00
21928;DHT22;11128;51.096;17.190;2023-05-18T17:20:27;17.20;1.00
21928;DHT22;11128;51.096;17.190;2023-05-18T17:25:28;17.20;1.00
21928;DHT22;11128;51.096;17.190;2023-05-18T17:30:30;17.00;1.00
21928;DHT22;11128;51.096;17.190;2023-05-18T17:35:31;16.90;1.00
21928;DHT22;11128;51.096;17.190;2023-05-18T17:40:33;16.80;1.00
21928;DHT22;11128;51.096;17.190;2023-05-18T17:45:34;16.50;1.00
21928;DHT22;11128;51.096;17.190;2023-05-18T17:50:35;16.40;1.00
21928;DHT22;11128;51.096;17.190;2023-05-18T17:55:38;16.40;1.00
21928;DHT22;11128;51.096;17.190;2023-05-18T18:00:39;16.20;1.00
21928;DHT22;11128;51.096;17.190;2023-05-18T18:05:41;16.10;1.00
21928;DHT22;11128;51.096;17.190;2023-05-18T18:10:42;16.00;1.00
21928;DHT22;11128;51.096;17.190;2023-05-18T18:15:44;15.80;1.00
21928;DHT22;11128;51.096;17.190;2023-05-18T18:20:45;15.70;1.00
21928;DHT22;11128;51.096;17.190;2023-05-18T18:25:47;15.60;1.00
21928;DHT22;11128;51.096;17.190;2023-05-18T18:30:48;15.50;1.00
21928;DHT22;11128;51.096;17.190;2023-05-18T18:35:51;15.30;1.00
21928;DHT22;11128;51.096;17.190;2023-05-18T18:40:53;15.10;1.00
21928;DHT22;11128;51.096;17.190;2023-05-18T18:46:00;15.00;1.00
21928;DHT22;11128;51.096;17.190;2023-05-18T18:51:02;14.90;1.00
21928;DHT22;11128;51.096;17.190;2023-05-18T18:56:04;14.70;1.00
21928;DHT22;11128;51.096;17.190;2023-05-18T19:01:05;14.60;1.00
21928;DHT22;11128;51.096;17.190;2023-05-18T19:06:06;14.50;1.00
21928;DHT22;11128;51.096;17.190;2023-05-18T19:11:08;14.20;1.00
21928;DHT22;11128;51.096;17.190;2023-05-18T19:16:10;14.10;1.00
21928;DHT22;11128;51.096;17.190;2023-05-18T19:21:11;13.90;1.00
21928;DHT22;11128;51.096;17.190;2023-05-18T19:26:12;13.80;33.70
21928;DHT22;11128;51.096;17.190;2023-05-18T19:31:14;13.60;97.90
21928;DHT22;11128;51.096;17.190;2023-05-18T19:36:16;13.50;99.90
21928;DHT22;11128;51.096;17.190;2023-05-18T19:41:20;13.40;99.90
21928;DHT22;11128;51.096;17.190;2023-05-18T19:46:22;13.30;99.90
21928;DHT22;11128;51.096;17.190;2023-05-18T19:51:24;13.10;99.90
21928;DHT22;11128;51.096;17.190;2023-05-18T19:56:25;13.00;99.90
21928;DHT22;11128;51.096;17.190;2023-05-18T20:01:27;12.90;99.90
21928;DHT22;11128;51.096;17.190;2023-05-18T20:06:28;12.70;1.00
21928;DHT22;11128;51.096;17.190;2023-05-18T20:11:31;12.60;1.00
21928;DHT22;11128;51.096;17.190;2023-05-18T20:16:33;12.40;1.00
21928;DHT22;11128;51.096;17.190;2023-05-18T20:21:39;12.30;1.00
21928;DHT22;11128;51.096;17.190;2023-05-18T20:26:41;12.10;1.00
21928;DHT22;11128;51.096;17.190;2023-05-18T20:31:42;12.10;1.00
21928;DHT22;11128;51.096;17.190;2023-05-18T20:36:44;11.90;1.00
21928;DHT22;11128;51.096;17.190;2023-05-18T20:41:45;11.80;99.90
21928;DHT22;11128;51.096;17.190;2023-05-18T20:46:48;11.70;99.90
21928;DHT22;11128;51.096;17.190;2023-05-18T20:51:50;11.60;99.90
21928;DHT22;11128;51.096;17.190;2023-05-18T20:56:51;11.50;99.90
21928;DHT22;11128;51.096;17.190;2023-05-18T21:01:52;11.50;99.90
21928;DHT22;11128;51.096;17.190;2023-05-18T21:06:54;11.50;1.00
21928;DHT22;11128;51.096;17.190;2023-05-18T21:11:55;11.40;1.00
21928;DHT22;11128;51.096;17.190;2023-05-18T21:16:57;11.40;1.00
21928;DHT22;11128;51.096;17.190;2023-05-18T21:21:58;11.30;1.00
21928;DHT22;11128;51.096;17.190;2023-05-18T21:27:00;11.30;1.00
21928;DHT22;11128;51.096;17.190;2023-05-18T21:32:02;11.20;1.00
21928;DHT22;11128;51.096;17.190;2023-05-18T21:37:04;11.20;1.00
21928;DHT22;11128;51.096;17.190;2023-05-18T21:42:05;11.30;1.00
21928;DHT22;11128;51.096;17.190;2023-05-18T21:47:07;11.20;1.00
21928;DHT22;11128;51.096;17.190;2023-05-18T21:52:08;11.20;1.00
21928;DHT22;11128;51.096;17.190;2023-05-18T21:57:10;11.20;1.00
21928;DHT22;11128;51.096;17.190;2023-05-18T22:02:11;11.20;1.00
21928;DHT22;11128;51.096;17.190;2023-05-18T22:07:13;11.20;1.00
21928;DHT22;11128;51.096;17.190;2023-05-18T22:12:15;11.30;1.00
21928;DHT22;11128;51.096;17.190;2023-05-18T22:17:16;11.20;1.00
21928;DHT22;11128;51.096;17.190;2023-05-18T22:22:18;11.30;1.00
21928;DHT22;11128;51.096;17.190;2023-05-18T22:27:20;11.30;1.00
21928;DHT22;11128;51.096;17.190;2023-05-18T22:32:22;11.30;1.00
21928;DHT22;11128;51.096;17.190;2023-05-18T22:37:24;11.30;1.00
21928;DHT22;11128;51.096;17.190;2023-05-18T22:42:26;11.30;1.00
21928;DHT22;11128;51.096;17.190;2023-05-18T22:47:28;11.40;1.00
21928;DHT22;11128;51.096;17.190;2023-05-18T22:52:30;11.40;1.00
21928;DHT22;11128;51.096;17.190;2023-05-18T22:57:32;11.40;1.00
21928;DHT22;11128;51.096;17.190;2023-05-18T23:02:34;11.30;1.00
21928;DHT22;11128;51.096;17.190;2023-05-18T23:07:35;11.40;1.00
21928;DHT22;11128;51.096;17.190;2023-05-18T23:12:38;11.40;1.00
21928;DHT22;11128;51.096;17.190;2023-05-18T23:17:39;11.30;1.00
21928;DHT22;11128;51.096;17.190;2023-05-18T23:22:43;11.30;1.00
21928;DHT22;11128;51.096;17.190;2023-05-18T23:27:44;11.20;20.10
21928;DHT22;11128;51.096;17.190;2023-05-18T23:32:46;11.20;9.00
21928;DHT22;11128;51.096;17.190;2023-05-18T23:37:48;11.10;99.90
21928;DHT22;11128;51.096;17.190;2023-05-18T23:42:50;11.00;99.90
21928;DHT22;11128;51.096;17.190;2023-05-18T23:47:51;11.10;99.90
21928;DHT22;11128;51.096;17.190;2023-05-18T23:52:59;11.20;1.00
21928;DHT22;11128;51.096;17.190;2023-05-18T23:58:04;11.20;1.00
